createdAt,value
2019-04-28T00:03:37.450Z,83.90
2019-04-28T00:07:43.178Z,84.30
2019-04-28T00:11:48.945Z,84.20
2019-04-28T00:15:55.035Z,84.60
2019-04-28T00:20:02.377Z,83.60
2019-04-28T00:24:28.623Z,82.20
2019-04-28T00:28:34.440Z,83.40
2019-04-28T00:32:41.782Z,83.30
2019-04-28T00:36:51.107Z,82.70
2019-04-28T00:40:56.978Z,79.70
2019-04-28T00:45:02.734Z,80.50
2019-04-28T00:49:08.479Z,84.60
2019-04-28T00:53:14.268Z,85.60
2019-04-28T00:57:21.178Z,83.50
2019-04-28T01:01:28.613Z,85.00
2019-04-28T01:05:34.287Z,84.10
2019-04-28T01:09:41.601Z,86.30
2019-04-28T01:13:47.404Z,86.30
2019-04-28T01:18:03.603Z,87.10
2019-04-28T01:22:12.604Z,87.70
2019-04-28T01:26:20.017Z,90.10
2019-04-28T01:30:29.909Z,90.30
2019-04-28T01:34:35.575Z,90.10
2019-04-28T01:38:41.275Z,90.60
2019-04-28T01:42:46.933Z,90.60
2019-04-28T01:46:52.758Z,90.90
2019-04-28T01:50:59.826Z,91.00
2019-04-28T01:55:07.209Z,90.70
2019-04-28T01:59:12.878Z,90.00
2019-04-28T02:03:20.114Z,90.30
2019-04-28T02:07:26.164Z,90.70
2019-04-28T02:11:31.848Z,90.70
2019-04-28T02:15:37.616Z,90.30
2019-04-28T02:19:43.292Z,90.20
2019-04-28T02:23:51.445Z,88.20
2019-04-28T02:27:57.269Z,87.60
2019-04-28T02:32:03.639Z,87.40
2019-04-28T02:36:12.138Z,87.60
2019-04-28T02:40:16.779Z,87.10
2019-04-28T02:44:23.652Z,87.20
2019-04-28T02:48:31.049Z,86.00
2019-04-28T02:52:54.300Z,85.40
2019-04-28T02:57:01.314Z,85.60
2019-04-28T03:01:18.548Z,84.80
2019-04-28T03:05:14.646Z,84.60
2019-04-28T03:09:20.757Z,84.10
2019-04-28T03:13:26.555Z,84.20
2019-04-28T03:17:32.228Z,83.50
2019-04-28T03:21:38.030Z,83.90
2019-04-28T03:25:45.357Z,83.50
2019-04-28T03:30:01.559Z,84.50
2019-04-28T03:34:07.760Z,84.70
2019-04-28T03:38:13.440Z,84.00
2019-04-28T03:42:21.586Z,84.90
2019-04-28T03:46:30.475Z,84.60
2019-04-28T03:50:35.492Z,84.70
2019-04-28T03:54:41.737Z,84.40
2019-04-28T03:58:47.408Z,84.50
2019-04-28T04:02:54.061Z,84.30
2019-04-28T04:07:01.505Z,85.00
2019-04-28T04:11:10.792Z,84.80
2019-04-28T04:15:41.744Z,84.70
2019-04-28T04:19:50.160Z,84.80
2019-04-28T04:23:54.804Z,85.60
2019-04-28T04:28:03.861Z,85.00
2019-04-28T04:32:15.689Z,84.70
2019-04-28T04:36:16.460Z,84.40
2019-04-28T04:40:22.141Z,84.50
2019-04-28T04:44:27.852Z,84.50
2019-04-28T04:48:33.526Z,84.60
2019-04-28T04:52:40.317Z,84.40
2019-04-28T04:56:46.096Z,84.30
2019-04-28T05:01:02.358Z,84.90
2019-04-28T05:05:11.738Z,85.00
2019-04-28T05:09:17.114Z,84.00
2019-04-28T05:13:22.774Z,83.10
2019-04-28T05:17:30.129Z,82.20
2019-04-28T05:21:35.954Z,81.70
2019-04-28T05:25:43.279Z,81.30
2019-04-28T05:29:51.183Z,81.10
2019-04-28T05:33:56.317Z,81.40
2019-04-28T05:38:01.992Z,80.80
2019-04-28T05:42:09.722Z,79.10
2019-04-28T05:46:15.040Z,77.60
2019-04-28T05:50:22.361Z,75.90
2019-04-28T05:54:45.269Z,74.80
2019-04-28T05:58:52.630Z,74.10
2019-04-28T06:03:02.869Z,74.30
2019-04-28T06:07:10.211Z,72.90
2019-04-28T06:11:35.430Z,71.00
2019-04-28T06:15:41.190Z,69.50
2019-04-28T06:19:46.941Z,68.00
2019-04-28T06:23:52.846Z,67.20
2019-04-28T06:27:58.525Z,70.20
2019-04-28T06:32:04.469Z,73.50
2019-04-28T06:36:10.236Z,72.20
2019-04-28T06:40:16.148Z,68.30
2019-04-28T06:44:21.822Z,63.30
2019-04-28T06:48:27.818Z,65.20
2019-04-28T06:52:33.492Z,68.30
2019-04-28T06:56:39.176Z,67.90
2019-04-28T07:00:44.970Z,67.30
2019-04-28T07:05:01.200Z,62.00
2019-04-28T07:08:58.044Z,61.90
2019-04-28T07:13:03.728Z,62.00
2019-04-28T07:17:09.422Z,61.20
2019-04-28T07:21:14.948Z,61.00
2019-04-28T07:25:20.707Z,57.70
2019-04-28T07:29:26.395Z,59.20
2019-04-28T07:33:36.135Z,60.80
2019-04-28T07:37:39.663Z,61.70
2019-04-28T07:41:45.402Z,60.60
2019-04-28T07:45:51.170Z,65.00
2019-04-28T07:49:56.868Z,65.70
2019-04-28T07:54:06.903Z,65.80
2019-04-28T07:58:12.568Z,75.50
2019-04-28T08:02:18.504Z,83.00
2019-04-28T08:06:26.871Z,83.90
2019-04-28T08:10:31.577Z,80.90
2019-04-28T08:14:37.245Z,79.30
2019-04-28T08:18:43.010Z,76.50
2019-04-28T08:22:48.748Z,73.10
2019-04-28T08:26:54.582Z,71.50
2019-04-28T08:31:00.350Z,69.10
2019-04-28T08:35:09.472Z,67.50
2019-04-28T08:39:15.239Z,63.20
2019-04-28T08:43:20.904Z,60.40
2019-04-28T08:47:26.743Z,61.60
2019-04-28T08:51:32.789Z,64.00
2019-04-28T08:55:38.563Z,60.80
2019-04-28T08:59:44.671Z,59.90
2019-04-28T09:03:50.371Z,55.70
2019-04-28T09:07:56.094Z,55.70
2019-04-28T09:12:01.788Z,54.80
2019-04-28T09:16:07.610Z,51.50
2019-04-28T09:20:13.502Z,57.20
2019-04-28T09:24:19.172Z,56.20
2019-04-28T09:28:25.904Z,56.80
2019-04-28T09:32:31.600Z,57.50
2019-04-28T09:36:37.284Z,61.60
2019-04-28T09:40:43.032Z,59.80
2019-04-28T09:44:48.780Z,59.60
2019-04-28T09:48:54.428Z,57.00
2019-04-28T09:53:00.154Z,49.80
2019-04-28T09:57:05.871Z,47.00
2019-04-28T10:01:11.548Z,44.40
2019-04-28T10:05:17.320Z,42.30
2019-04-28T10:09:23.019Z,41.70
2019-04-28T10:13:28.754Z,39.90
2019-04-28T10:17:34.580Z,39.30
2019-04-28T10:21:40.268Z,42.60
2019-04-28T10:25:46.694Z,48.20
2019-04-28T10:29:52.388Z,48.10
2019-04-28T10:33:59.765Z,46.80
2019-04-28T10:38:05.777Z,47.00
2019-04-28T10:42:11.546Z,49.00
2019-04-28T10:46:17.397Z,50.00
2019-04-28T10:50:23.282Z,49.00
2019-04-28T10:54:28.988Z,49.00
2019-04-28T10:58:34.921Z,50.40
2019-04-28T11:02:42.268Z,50.80
2019-04-28T11:06:48.055Z,49.90
2019-04-28T11:10:55.113Z,48.60
2019-04-28T11:15:00.807Z,48.20
2019-04-28T11:19:06.714Z,50.00
2019-04-28T11:23:12.477Z,54.30
2019-04-28T11:27:18.547Z,60.70
2019-04-28T11:31:24.304Z,68.80
2019-04-28T11:35:31.795Z,73.70
2019-04-28T11:39:39.200Z,78.00
2019-04-28T11:43:44.997Z,81.00
2019-04-28T11:47:50.919Z,84.80
2019-04-28T11:51:57.572Z,85.00
2019-04-28T11:56:03.653Z,83.50
2019-04-28T12:00:14.585Z,81.00
2019-04-28T12:04:20.947Z,81.90
2019-04-28T12:08:26.667Z,82.80
2019-04-28T12:12:45.960Z,80.80
2019-04-28T12:16:54.467Z,79.60
2019-04-28T12:21:01.128Z,83.60
2019-04-28T12:25:09.459Z,83.60
2019-04-28T12:29:15.145Z,78.40
2019-04-28T12:33:20.878Z,76.70
2019-04-28T12:37:26.588Z,72.70
2019-04-28T12:41:32.280Z,65.00
2019-04-28T12:45:37.976Z,53.40
2019-04-28T12:49:54.467Z,50.80
2019-04-28T12:54:02.796Z,44.80
2019-04-28T12:58:08.510Z,47.50
2019-04-28T13:02:21.680Z,47.20
2019-04-28T13:06:27.354Z,45.10
2019-04-28T13:10:33.099Z,44.20
2019-04-28T13:14:38.791Z,42.90
2019-04-28T13:18:44.569Z,45.00
2019-04-28T13:22:50.329Z,45.30
2019-04-28T13:26:56.099Z,42.60
2019-04-28T13:31:01.833Z,39.90
2019-04-28T13:35:09.748Z,38.30
2019-04-28T13:39:17.079Z,39.50
2019-04-28T13:43:22.813Z,37.90
2019-04-28T13:47:28.568Z,33.70
2019-04-28T13:51:34.446Z,34.50
2019-04-28T13:55:46.784Z,36.20
2019-04-28T13:59:56.594Z,32.80
2019-04-28T14:04:06.349Z,34.00
2019-04-28T14:08:12.342Z,33.50
2019-04-28T14:12:18.046Z,32.30
2019-04-28T14:16:23.752Z,32.50
2019-04-28T14:20:29.453Z,33.10
2019-04-28T14:24:35.157Z,33.00
2019-04-28T14:28:40.862Z,32.40
2019-04-28T14:32:46.638Z,33.10
2019-04-28T14:36:53.292Z,35.00
2019-04-28T14:40:59.000Z,36.40
2019-04-28T14:45:07.406Z,37.80
2019-04-28T14:49:13.139Z,38.80
2019-04-28T14:53:18.795Z,37.10
2019-04-28T14:57:24.502Z,37.60
2019-04-28T15:01:40.481Z,38.90
2019-04-28T15:05:51.807Z,39.60
2019-04-28T15:10:01.891Z,38.10
2019-04-28T15:14:07.876Z,42.10
2019-04-28T15:18:13.663Z,44.50
2019-04-28T15:22:19.359Z,42.80
2019-04-28T15:26:25.063Z,40.50
2019-04-28T15:30:30.883Z,43.90
2019-04-28T15:34:36.717Z,44.00
2019-04-28T15:38:42.434Z,44.60
2019-04-28T15:42:49.166Z,45.30
2019-04-28T15:46:55.950Z,46.30
2019-04-28T15:51:01.630Z,45.50
2019-04-28T15:55:10.382Z,46.60
2019-04-28T15:59:16.072Z,45.40
2019-04-28T16:03:21.781Z,46.60
2019-04-28T16:07:27.553Z,44.10
2019-04-28T16:11:33.249Z,43.20
2019-04-28T16:15:38.957Z,44.20
2019-04-28T16:19:44.797Z,42.50
2019-04-28T16:23:50.515Z,41.90
2019-04-28T16:27:56.208Z,44.50
2019-04-28T16:32:02.028Z,45.30
2019-04-28T16:36:07.722Z,43.00
2019-04-28T16:40:13.954Z,43.70
2019-04-28T16:44:23.205Z,46.00
2019-04-28T16:48:29.129Z,44.70
2019-04-28T16:52:35.059Z,45.50
2019-04-28T16:56:40.591Z,45.50
2019-04-28T17:00:51.011Z,47.80
2019-04-28T17:04:56.926Z,47.70
2019-04-28T17:09:02.753Z,49.10
2019-04-28T17:13:10.450Z,47.10
2019-04-28T17:17:16.250Z,47.10
2019-04-28T17:21:22.203Z,47.10
2019-04-28T17:25:27.989Z,48.10
2019-04-28T17:29:33.721Z,48.80
2019-04-28T17:33:39.438Z,50.40
2019-04-28T17:37:45.261Z,50.70
2019-04-28T17:41:51.174Z,54.20
2019-04-28T17:45:56.963Z,54.80
2019-04-28T17:50:02.917Z,54.50
2019-04-28T17:54:08.955Z,54.80
2019-04-28T17:58:14.652Z,53.60
2019-04-28T18:02:34.054Z,52.30
2019-04-28T18:06:41.383Z,53.10
2019-04-28T18:10:47.099Z,52.30
2019-04-28T18:14:54.418Z,53.80
2019-04-28T18:19:01.755Z,53.80
2019-04-28T18:23:07.527Z,53.80
2019-04-28T18:27:13.219Z,56.20
2019-04-28T18:31:23.552Z,55.50
2019-04-28T18:35:39.997Z,56.30
2019-04-28T18:39:53.381Z,58.30
2019-04-28T18:44:06.494Z,56.90
2019-04-28T18:48:12.234Z,59.60
2019-04-28T18:52:17.947Z,58.90
2019-04-28T18:56:23.617Z,56.70
2019-04-28T19:00:33.717Z,60.80
2019-04-28T19:04:39.422Z,58.70
2019-04-28T19:08:55.906Z,58.90
2019-04-28T19:13:19.579Z,61.30
2019-04-28T19:17:28.058Z,59.30
2019-04-28T19:21:33.781Z,62.10
2019-04-28T19:25:39.475Z,58.70
2019-04-28T19:29:45.315Z,58.70
2019-04-28T19:33:51.012Z,61.20
2019-04-28T19:37:56.766Z,62.10
2019-04-28T19:42:02.462Z,61.90
2019-04-28T19:46:09.916Z,59.10
2019-04-28T19:50:15.830Z,59.00
2019-04-28T19:54:23.170Z,59.40
2019-04-28T19:58:39.456Z,62.80
2019-04-28T20:02:45.152Z,64.20
2019-04-28T20:06:50.863Z,62.80
2019-04-28T20:10:56.584Z,62.60
2019-04-28T20:15:02.451Z,61.10
2019-04-28T20:19:09.318Z,59.60
2019-04-28T20:23:15.074Z,60.70
2019-04-28T20:27:20.838Z,59.40
2019-04-28T20:31:26.537Z,59.00
2019-04-28T20:35:33.871Z,60.20
2019-04-28T20:39:39.639Z,60.20
2019-04-28T20:43:45.384Z,61.60
2019-04-28T20:47:51.108Z,60.90
2019-04-28T20:51:56.820Z,60.90
2019-04-28T20:56:02.540Z,62.00
2019-04-28T21:00:09.065Z,63.10
2019-04-28T21:04:16.377Z,64.10
2019-04-28T21:08:22.107Z,63.00
2019-04-28T21:12:27.816Z,60.80
2019-04-28T21:16:33.497Z,64.40
2019-04-28T21:20:39.229Z,63.10
2019-04-28T21:24:44.938Z,62.20
2019-04-28T21:28:50.637Z,62.70
2019-04-28T21:32:56.427Z,62.20
2019-04-28T21:37:02.153Z,62.60
2019-04-28T21:41:07.927Z,62.20
2019-04-28T21:45:31.543Z,61.60
2019-04-28T21:49:38.904Z,63.00
2019-04-28T21:53:44.693Z,62.60
2019-04-28T21:57:50.355Z,64.70
2019-04-28T22:01:56.335Z,67.10
2019-04-28T22:06:02.139Z,64.00
2019-04-28T22:10:09.801Z,66.10
2019-04-28T22:14:17.171Z,63.10
2019-04-28T22:18:22.949Z,66.50
2019-04-28T22:22:28.824Z,65.00
2019-04-28T22:26:50.987Z,63.20
2019-04-28T22:30:57.741Z,66.00
2019-04-28T22:35:03.508Z,66.20
2019-04-28T22:39:09.238Z,67.60
2019-04-28T22:43:16.001Z,66.20
2019-04-28T22:47:21.702Z,67.10
2019-04-28T22:51:27.451Z,67.70
2019-04-28T22:55:34.889Z,66.30
2019-04-28T22:59:42.198Z,66.40
2019-04-28T23:04:05.835Z,65.70
2019-04-28T23:08:11.627Z,66.00
2019-04-28T23:12:17.313Z,65.80
2019-04-28T23:16:23.135Z,65.80
2019-04-28T23:20:30.437Z,66.00
2019-04-28T23:24:36.122Z,67.20
2019-04-28T23:28:41.868Z,68.10
2019-04-28T23:32:47.552Z,67.60
2019-04-28T23:36:53.261Z,68.10
2019-04-28T23:41:10.821Z,68.20
2019-04-28T23:45:16.527Z,67.10
2019-04-28T23:49:22.222Z,67.60
2019-04-28T23:53:45.391Z,70.40
2019-04-28T23:57:51.101Z,67.20
